sensor_id;sensor_type;location;lat;lon;timestamp;P1;durP1;ratioP1;P2;durP2;ratioP2
17818;SDS011;9034;50.284;19.310;2023-07-31T00:00:19;4.78;;;3.00;;
17818;SDS011;9034;50.284;19.310;2023-07-31T00:01:21;3.63;;;3.22;;
17818;SDS011;9034;50.284;19.310;2023-07-31T00:02:24;3.42;;;3.13;;
17818;SDS011;9034;50.284;19.310;2023-07-31T00:03:25;3.90;;;3.58;;
17818;SDS011;9034;50.284;19.310;2023-07-31T00:04:28;4.05;;;3.25;;
17818;SDS011;9034;50.284;19.310;2023-07-31T00:05:30;3.58;;;2.80;;
17818;SDS011;9034;50.284;19.310;2023-07-31T00:06:34;4.35;;;3.22;;
17818;SDS011;9034;50.284;19.310;2023-07-31T00:07:36;3.55;;;3.25;;
17818;SDS011;9034;50.284;19.310;2023-07-31T00:08:39;3.47;;;3.15;;
17818;SDS011;9034;50.284;19.310;2023-07-31T00:09:41;3.40;;;3.10;;
17818;SDS011;9034;50.284;19.310;2023-07-31T00:10:44;3.38;;;3.08;;
17818;SDS011;9034;50.284;19.310;2023-07-31T00:11:46;3.17;;;2.88;;
17818;SDS011;9034;50.284;19.310;2023-07-31T00:12:49;3.05;;;2.85;;
17818;SDS011;9034;50.284;19.310;2023-07-31T00:13:52;3.63;;;2.88;;
17818;SDS011;9034;50.284;19.310;2023-07-31T00:14:55;3.35;;;2.92;;
17818;SDS011;9034;50.284;19.310;2023-07-31T00:15:57;3.33;;;3.03;;
17818;SDS011;9034;50.284;19.310;2023-07-31T00:17:00;4.65;;;3.35;;
17818;SDS011;9034;50.284;19.310;2023-07-31T00:18:02;4.05;;;2.83;;
17818;SDS011;9034;50.284;19.310;2023-07-31T00:19:05;4.22;;;2.83;;
17818;SDS011;9034;50.284;19.310;2023-07-31T00:20:07;3.67;;;3.30;;
17818;SDS011;9034;50.284;19.310;2023-07-31T00:21:11;4.53;;;2.95;;
17818;SDS011;9034;50.284;19.310;2023-07-31T00:22:14;3.65;;;3.35;;
17818;SDS011;9034;50.284;19.310;2023-07-31T00:23:17;4.75;;;3.50;;
17818;SDS011;9034;50.284;19.310;2023-07-31T00:24:19;3.60;;;3.30;;
17818;SDS011;9034;50.284;19.310;2023-07-31T00:25:22;3.03;;;2.72;;
17818;SDS011;9034;50.284;19.310;2023-07-31T00:26:23;3.33;;;3.03;;
17818;SDS011;9034;50.284;19.310;2023-07-31T00:27:26;3.28;;;2.97;;
17818;SDS011;9034;50.284;19.310;2023-07-31T00:28:28;3.45;;;2.60;;
17818;SDS011;9034;50.284;19.310;2023-07-31T00:29:31;3.10;;;2.80;;
17818;SDS011;9034;50.284;19.310;2023-07-31T00:30:33;4.07;;;2.75;;
17818;SDS011;9034;50.284;19.310;2023-07-31T00:31:36;3.55;;;3.22;;
17818;SDS011;9034;50.284;19.310;2023-07-31T00:32:38;3.75;;;3.05;;
17818;SDS011;9034;50.284;19.310;2023-07-31T00:33:40;3.20;;;2.90;;
17818;SDS011;9034;50.284;19.310;2023-07-31T00:34:42;4.35;;;3.53;;
17818;SDS011;9034;50.284;19.310;2023-07-31T00:35:45;3.10;;;2.80;;
17818;SDS011;9034;50.284;19.310;2023-07-31T00:36:47;3.22;;;2.80;;
17818;SDS011;9034;50.284;19.310;2023-07-31T00:37:52;3.35;;;3.05;;
17818;SDS011;9034;50.284;19.310;2023-07-31T00:38:53;4.07;;;3.28;;
17818;SDS011;9034;50.284;19.310;2023-07-31T00:39:56;4.50;;;3.30;;
17818;SDS011;9034;50.284;19.310;2023-07-31T00:40:58;3.25;;;2.95;;
17818;SDS011;9034;50.284;19.310;2023-07-31T00:42:01;3.75;;;3.38;;
17818;SDS011;9034;50.284;19.310;2023-07-31T00:43:03;3.83;;;3.33;;
17818;SDS011;9034;50.284;19.310;2023-07-31T00:44:08;3.30;;;3.00;;
17818;SDS011;9034;50.284;19.310;2023-07-31T00:45:10;4.20;;;3.53;;
17818;SDS011;9034;50.284;19.310;2023-07-31T00:46:13;3.78;;;3.40;;
17818;SDS011;9034;50.284;19.310;2023-07-31T00:47:15;4.47;;;3.53;;
17818;SDS011;9034;50.284;19.310;2023-07-31T00:48:18;3.50;;;3.17;;
17818;SDS011;9034;50.284;19.310;2023-07-31T00:49:20;7.25;;;4.43;;
17818;SDS011;9034;50.284;19.310;2023-07-31T00:50:23;3.50;;;3.15;;
17818;SDS011;9034;50.284;19.310;2023-07-31T00:51:25;3.60;;;3.30;;
17818;SDS011;9034;50.284;19.310;2023-07-31T00:52:28;3.10;;;2.80;;
17818;SDS011;9034;50.284;19.310;2023-07-31T00:53:31;3.35;;;3.03;;
17818;SDS011;9034;50.284;19.310;2023-07-31T00:54:34;2.88;;;2.67;;
17818;SDS011;9034;50.284;19.310;2023-07-31T00:55:36;3.20;;;2.83;;
17818;SDS011;9034;50.284;19.310;2023-07-31T00:56:40;2.97;;;2.67;;
17818;SDS011;9034;50.284;19.310;2023-07-31T00:57:42;2.90;;;2.70;;
17818;SDS011;9034;50.284;19.310;2023-07-31T00:58:45;4.10;;;3.25;;
17818;SDS011;9034;50.284;19.310;2023-07-31T00:59:48;3.50;;;3.00;;
17818;SDS011;9034;50.284;19.310;2023-07-31T01:00:50;3.17;;;2.88;;
17818;SDS011;9034;50.284;19.310;2023-07-31T01:01:53;4.60;;;3.33;;
17818;SDS011;9034;50.284;19.310;2023-07-31T01:02:56;5.72;;;3.78;;
17818;SDS011;9034;50.284;19.310;2023-07-31T01:03:58;3.50;;;3.20;;
17818;SDS011;9034;50.284;19.310;2023-07-31T01:05:01;4.22;;;3.60;;
17818;SDS011;9034;50.284;19.310;2023-07-31T01:06:06;4.03;;;3.63;;
17818;SDS011;9034;50.284;19.310;2023-07-31T01:07:17;4.68;;;3.92;;
17818;SDS011;9034;50.284;19.310;2023-07-31T01:08:24;5.22;;;3.45;;
17818;SDS011;9034;50.284;19.310;2023-07-31T01:09:34;4.72;;;4.28;;
17818;SDS011;9034;50.284;19.310;2023-07-31T01:10:41;4.13;;;3.72;;
17818;SDS011;9034;50.284;19.310;2023-07-31T01:11:50;6.72;;;4.65;;
17818;SDS011;9034;50.284;19.310;2023-07-31T01:12:54;5.05;;;4.35;;
17818;SDS011;9034;50.284;19.310;2023-07-31T01:13:59;6.13;;;4.47;;
17818;SDS011;9034;50.284;19.310;2023-07-31T01:15:04;7.07;;;4.78;;
17818;SDS011;9034;50.284;19.310;2023-07-31T01:16:08;6.13;;;5.10;;
17818;SDS011;9034;50.284;19.310;2023-07-31T01:17:10;5.57;;;4.78;;
17818;SDS011;9034;50.284;19.310;2023-07-31T01:18:13;5.90;;;5.15;;
17818;SDS011;9034;50.284;19.310;2023-07-31T01:19:15;6.18;;;5.05;;
17818;SDS011;9034;50.284;19.310;2023-07-31T01:20:20;5.93;;;5.22;;
17818;SDS011;9034;50.284;19.310;2023-07-31T01:21:30;8.00;;;4.85;;
17818;SDS011;9034;50.284;19.310;2023-07-31T01:22:48;5.10;;;4.60;;
17818;SDS011;9034;50.284;19.310;2023-07-31T01:24:07;5.03;;;4.53;;
17818;SDS011;9034;50.284;19.310;2023-07-31T01:25:22;5.30;;;4.80;;
17818;SDS011;9034;50.284;19.310;2023-07-31T01:26:36;5.20;;;4.70;;
17818;SDS011;9034;50.284;19.310;2023-07-31T01:27:41;5.93;;;4.60;;
17818;SDS011;9034;50.284;19.310;2023-07-31T01:28:50;5.72;;;4.75;;
17818;SDS011;9034;50.284;19.310;2023-07-31T01:29:59;6.13;;;4.20;;
17818;SDS011;9034;50.284;19.310;2023-07-31T01:31:06;5.50;;;4.30;;
17818;SDS011;9034;50.284;19.310;2023-07-31T01:32:09;6.18;;;4.53;;
17818;SDS011;9034;50.284;19.310;2023-07-31T01:33:13;4.45;;;4.05;;
17818;SDS011;9034;50.284;19.310;2023-07-31T01:34:15;4.78;;;4.38;;
17818;SDS011;9034;50.284;19.310;2023-07-31T01:35:20;5.50;;;4.68;;
17818;SDS011;9034;50.284;19.310;2023-07-31T01:36:22;4.85;;;4.40;;
17818;SDS011;9034;50.284;19.310;2023-07-31T01:37:27;6.35;;;4.43;;
17818;SDS011;9034;50.284;19.310;2023-07-31T01:38:30;5.28;;;4.07;;
17818;SDS011;9034;50.284;19.310;2023-07-31T01:39:33;6.43;;;3.85;;
17818;SDS011;9034;50.284;19.310;2023-07-31T01:40:34;4.50;;;4.10;;
17818;SDS011;9034;50.284;19.310;2023-07-31T01:41:39;4.78;;;4.00;;
17818;SDS011;9034;50.284;19.310;2023-07-31T01:42:40;4.32;;;3.83;;
17818;SDS011;9034;50.284;19.310;2023-07-31T01:43:43;5.45;;;4.20;;
17818;SDS011;9034;50.284;19.310;2023-07-31T01:44:46;4.75;;;4.05;;
17818;SDS011;9034;50.284;19.310;2023-07-31T01:45:49;5.88;;;3.75;;
17818;SDS011;9034;50.284;19.310;2023-07-31T01:46:51;4.15;;;3.78;;
17818;SDS011;9034;50.284;19.310;2023-07-31T01:47:54;4.53;;;3.88;;
17818;SDS011;9034;50.284;19.310;2023-07-31T01:48:57;4.30;;;3.55;;
17818;SDS011;9034;50.284;19.310;2023-07-31T01:50:00;3.95;;;3.45;;
17818;SDS011;9034;50.284;19.310;2023-07-31T01:51:02;4.47;;;3.50;;
17818;SDS011;9034;50.284;19.310;2023-07-31T01:52:05;5.38;;;3.92;;
17818;SDS011;9034;50.284;19.310;2023-07-31T01:53:07;3.70;;;3.13;;
17818;SDS011;9034;50.284;19.310;2023-07-31T01:54:10;4.15;;;3.63;;
17818;SDS011;9034;50.284;19.310;2023-07-31T01:55:12;5.90;;;3.78;;
17818;SDS011;9034;50.284;19.310;2023-07-31T01:56:15;4.85;;;3.58;;
17818;SDS011;9034;50.284;19.310;2023-07-31T01:57:18;5.43;;;3.97;;
17818;SDS011;9034;50.284;19.310;2023-07-31T01:58:21;5.60;;;3.40;;
17818;SDS011;9034;50.284;19.310;2023-07-31T01:59:23;4.18;;;3.80;;
17818;SDS011;9034;50.284;19.310;2023-07-31T02:00:26;4.10;;;3.70;;
17818;SDS011;9034;50.284;19.310;2023-07-31T02:01:28;4.13;;;3.72;;
17818;SDS011;9034;50.284;19.310;2023-07-31T02:02:32;5.38;;;3.10;;
17818;SDS011;9034;50.284;19.310;2023-07-31T02:03:34;3.72;;;3.38;;
17818;SDS011;9034;50.284;19.310;2023-07-31T02:04:37;3.63;;;3.33;;
17818;SDS011;9034;50.284;19.310;2023-07-31T02:07:19;3.83;;;3.42;;
17818;SDS011;9034;50.284;19.310;2023-07-31T02:08:22;3.67;;;3.38;;
17818;SDS011;9034;50.284;19.310;2023-07-31T02:09:24;3.78;;;3.38;;
17818;SDS011;9034;50.284;19.310;2023-07-31T02:10:27;5.78;;;3.90;;
17818;SDS011;9034;50.284;19.310;2023-07-31T02:11:29;5.10;;;3.25;;
17818;SDS011;9034;50.284;19.310;2023-07-31T02:12:33;3.17;;;2.90;;
17818;SDS011;9034;50.284;19.310;2023-07-31T02:13:36;4.90;;;3.00;;
17818;SDS011;9034;50.284;19.310;2023-07-31T02:14:39;3.60;;;3.30;;
17818;SDS011;9034;50.284;19.310;2023-07-31T02:15:40;3.53;;;2.95;;
17818;SDS011;9034;50.284;19.310;2023-07-31T02:16:43;3.92;;;3.33;;
17818;SDS011;9034;50.284;19.310;2023-07-31T02:17:46;3.95;;;3.03;;
17818;SDS011;9034;50.284;19.310;2023-07-31T02:18:48;3.60;;;3.30;;
17818;SDS011;9034;50.284;19.310;2023-07-31T02:19:51;2.70;;;2.50;;
17818;SDS011;9034;50.284;19.310;2023-07-31T02:20:53;3.55;;;3.20;;
17818;SDS011;9034;50.284;19.310;2023-07-31T02:21:56;4.43;;;3.05;;
17818;SDS011;9034;50.284;19.310;2023-07-31T02:22:58;3.70;;;3.17;;
17818;SDS011;9034;50.284;19.310;2023-07-31T02:24:00;3.30;;;2.90;;
17818;SDS011;9034;50.284;19.310;2023-07-31T02:25:02;3.40;;;3.10;;
17818;SDS011;9034;50.284;19.310;2023-07-31T02:26:06;4.35;;;3.25;;
17818;SDS011;9034;50.284;19.310;2023-07-31T02:27:08;3.47;;;3.17;;
17818;SDS011;9034;50.284;19.310;2023-07-31T02:28:12;3.20;;;2.90;;
17818;SDS011;9034;50.284;19.310;2023-07-31T02:29:14;3.75;;;2.90;;
17818;SDS011;9034;50.284;19.310;2023-07-31T02:30:17;2.92;;;2.72;;
17818;SDS011;9034;50.284;19.310;2023-07-31T02:31:19;2.88;;;2.58;;
17818;SDS011;9034;50.284;19.310;2023-07-31T02:32:23;3.50;;;3.20;;
17818;SDS011;9034;50.284;19.310;2023-07-31T02:33:25;2.90;;;2.60;;
17818;SDS011;9034;50.284;19.310;2023-07-31T02:34:28;5.22;;;3.28;;
17818;SDS011;9034;50.284;19.310;2023-07-31T02:35:30;3.75;;;3.30;;
17818;SDS011;9034;50.284;19.310;2023-07-31T02:36:32;3.10;;;2.80;;
17818;SDS011;9034;50.284;19.310;2023-07-31T02:37:35;4.50;;;3.17;;
17818;SDS011;9034;50.284;19.310;2023-07-31T02:38:37;3.20;;;2.90;;
17818;SDS011;9034;50.284;19.310;2023-07-31T02:39:40;4.60;;;2.92;;
17818;SDS011;9034;50.284;19.310;2023-07-31T02:40:42;2.95;;;2.72;;
17818;SDS011;9034;50.284;19.310;2023-07-31T02:41:45;3.08;;;2.60;;
17818;SDS011;9034;50.284;19.310;2023-07-31T02:42:48;2.88;;;2.60;;
17818;SDS011;9034;50.284;19.310;2023-07-31T02:43:52;2.80;;;2.60;;
17818;SDS011;9034;50.284;19.310;2023-07-31T02:44:54;3.65;;;2.70;;
17818;SDS011;9034;50.284;19.310;2023-07-31T02:45:59;5.72;;;3.03;;
17818;SDS011;9034;50.284;19.310;2023-07-31T02:47:01;2.80;;;2.60;;
17818;SDS011;9034;50.284;19.310;2023-07-31T02:48:04;3.40;;;2.75;;
17818;SDS011;9034;50.284;19.310;2023-07-31T02:49:06;3.40;;;3.10;;
17818;SDS011;9034;50.284;19.310;2023-07-31T02:50:10;2.45;;;2.25;;
17818;SDS011;9034;50.284;19.310;2023-07-31T02:51:12;2.67;;;2.47;;
17818;SDS011;9034;50.284;19.310;2023-07-31T02:52:15;3.20;;;3.00;;
17818;SDS011;9034;50.284;19.310;2023-07-31T02:53:16;3.00;;;2.70;;
17818;SDS011;9034;50.284;19.310;2023-07-31T02:54:19;3.17;;;2.88;;
17818;SDS011;9034;50.284;19.310;2023-07-31T02:55:23;3.03;;;2.72;;
17818;SDS011;9034;50.284;19.310;2023-07-31T02:56:25;3.05;;;2.67;;
17818;SDS011;9034;50.284;19.310;2023-07-31T02:57:27;3.25;;;2.45;;
17818;SDS011;9034;50.284;19.310;2023-07-31T02:58:30;2.30;;;2.10;;
17818;SDS011;9034;50.284;19.310;2023-07-31T02:59:34;3.25;;;2.95;;
17818;SDS011;9034;50.284;19.310;2023-07-31T03:00:41;2.60;;;2.40;;
17818;SDS011;9034;50.284;19.310;2023-07-31T03:01:43;2.80;;;2.60;;
17818;SDS011;9034;50.284;19.310;2023-07-31T03:02:46;2.72;;;2.53;;
17818;SDS011;9034;50.284;19.310;2023-07-31T03:03:48;2.80;;;2.60;;
17818;SDS011;9034;50.284;19.310;2023-07-31T03:04:51;2.70;;;2.50;;
17818;SDS011;9034;50.284;19.310;2023-07-31T03:05:53;2.70;;;2.50;;
17818;SDS011;9034;50.284;19.310;2023-07-31T03:06:56;3.35;;;2.70;;
17818;SDS011;9034;50.284;19.310;2023-07-31T03:07:58;2.83;;;2.53;;
17818;SDS011;9034;50.284;19.310;2023-07-31T03:09:01;3.80;;;2.70;;
17818;SDS011;9034;50.284;19.310;2023-07-31T03:10:03;2.70;;;2.50;;
17818;SDS011;9034;50.284;19.310;2023-07-31T03:11:06;2.47;;;2.28;;
17818;SDS011;9034;50.284;19.310;2023-07-31T03:12:08;3.05;;;2.70;;
17818;SDS011;9034;50.284;19.310;2023-07-31T03:13:11;2.45;;;2.25;;
17818;SDS011;9034;50.284;19.310;2023-07-31T03:14:13;4.40;;;2.60;;
17818;SDS011;9034;50.284;19.310;2023-07-31T03:15:20;2.50;;;2.30;;
17818;SDS011;9034;50.284;19.310;2023-07-31T03:16:22;2.83;;;2.53;;
17818;SDS011;9034;50.284;19.310;2023-07-31T03:17:25;6.65;;;3.00;;
17818;SDS011;9034;50.284;19.310;2023-07-31T03:18:26;2.95;;;2.65;;
17818;SDS011;9034;50.284;19.310;2023-07-31T03:19:30;2.70;;;2.50;;
17818;SDS011;9034;50.284;19.310;2023-07-31T03:20:32;3.80;;;2.58;;
17818;SDS011;9034;50.284;19.310;2023-07-31T03:21:35;2.65;;;2.45;;
17818;SDS011;9034;50.284;19.310;2023-07-31T03:22:37;2.88;;;2.60;;
17818;SDS011;9034;50.284;19.310;2023-07-31T03:23:39;2.60;;;2.40;;
17818;SDS011;9034;50.284;19.310;2023-07-31T03:24:41;2.13;;;2.03;;
17818;SDS011;9034;50.284;19.310;2023-07-31T03:25:54;2.67;;;2.45;;
17818;SDS011;9034;50.284;19.310;2023-07-31T03:26:58;2.70;;;2.50;;
17818;SDS011;9034;50.284;19.310;2023-07-31T03:28:01;2.50;;;2.30;;
17818;SDS011;9034;50.284;19.310;2023-07-31T03:29:04;3.35;;;3.15;;
17818;SDS011;9034;50.284;19.310;2023-07-31T03:30:06;2.72;;;2.45;;
17818;SDS011;9034;50.284;19.310;2023-07-31T03:31:12;2.50;;;2.30;;
17818;SDS011;9034;50.284;19.310;2023-07-31T03:32:14;2.60;;;2.40;;
17818;SDS011;9034;50.284;19.310;2023-07-31T03:33:17;2.70;;;2.50;;
17818;SDS011;9034;50.284;19.310;2023-07-31T03:34:18;3.40;;;3.10;;
17818;SDS011;9034;50.284;19.310;2023-07-31T03:35:21;8.98;;;2.50;;
17818;SDS011;9034;50.284;19.310;2023-07-31T03:36:23;2.35;;;2.15;;
17818;SDS011;9034;50.284;19.310;2023-07-31T03:37:27;2.60;;;2.40;;
17818;SDS011;9034;50.284;19.310;2023-07-31T03:38:30;2.80;;;2.60;;
17818;SDS011;9034;50.284;19.310;2023-07-31T03:39:33;6.45;;;3.30;;
17818;SDS011;9034;50.284;19.310;2023-07-31T03:40:35;2.63;;;2.42;;
17818;SDS011;9034;50.284;19.310;2023-07-31T03:41:38;3.53;;;3.20;;
17818;SDS011;9034;50.284;19.310;2023-07-31T03:42:40;3.20;;;2.40;;
17818;SDS011;9034;50.284;19.310;2023-07-31T03:43:42;2.78;;;2.47;;
17818;SDS011;9034;50.284;19.310;2023-07-31T03:44:44;2.50;;;2.30;;
17818;SDS011;9034;50.284;19.310;2023-07-31T03:45:47;3.45;;;2.53;;
17818;SDS011;9034;50.284;19.310;2023-07-31T03:46:50;2.10;;;2.00;;
17818;SDS011;9034;50.284;19.310;2023-07-31T03:47:53;2.70;;;2.45;;
17818;SDS011;9034;50.284;19.310;2023-07-31T03:48:57;2.72;;;2.30;;
17818;SDS011;9034;50.284;19.310;2023-07-31T03:50:00;2.45;;;1.90;;
17818;SDS011;9034;50.284;19.310;2023-07-31T03:51:02;2.67;;;2.30;;
17818;SDS011;9034;50.284;19.310;2023-07-31T03:52:06;2.60;;;2.40;;
17818;SDS011;9034;50.284;19.310;2023-07-31T03:53:08;2.50;;;2.30;;
17818;SDS011;9034;50.284;19.310;2023-07-31T03:54:11;2.50;;;2.30;;
17818;SDS011;9034;50.284;19.310;2023-07-31T03:55:14;2.33;;;2.13;;
17818;SDS011;9034;50.284;19.310;2023-07-31T03:56:17;2.63;;;2.30;;
17818;SDS011;9034;50.284;19.310;2023-07-31T03:57:19;2.50;;;2.30;;
17818;SDS011;9034;50.284;19.310;2023-07-31T03:58:22;3.28;;;2.53;;
17818;SDS011;9034;50.284;19.310;2023-07-31T03:59:23;2.17;;;2.03;;
17818;SDS011;9034;50.284;19.310;2023-07-31T04:00:27;2.92;;;2.38;;
17818;SDS011;9034;50.284;19.310;2023-07-31T04:01:29;2.15;;;2.05;;
17818;SDS011;9034;50.284;19.310;2023-07-31T04:02:33;3.42;;;2.60;;
17818;SDS011;9034;50.284;19.310;2023-07-31T04:03:35;2.65;;;2.40;;
17818;SDS011;9034;50.284;19.310;2023-07-31T04:04:37;2.22;;;2.03;;
17818;SDS011;9034;50.284;19.310;2023-07-31T04:05:39;2.42;;;2.22;;
17818;SDS011;9034;50.284;19.310;2023-07-31T04:06:42;2.38;;;2.17;;
17818;SDS011;9034;50.284;19.310;2023-07-31T04:07:44;2.40;;;2.20;;
17818;SDS011;9034;50.284;19.310;2023-07-31T04:08:47;2.28;;;2.08;;
17818;SDS011;9034;50.284;19.310;2023-07-31T04:09:49;2.55;;;2.35;;
17818;SDS011;9034;50.284;19.310;2023-07-31T04:10:52;3.92;;;2.40;;
17818;SDS011;9034;50.284;19.310;2023-07-31T04:11:53;2.63;;;2.20;;
17818;SDS011;9034;50.284;19.310;2023-07-31T04:12:56;3.92;;;2.40;;
17818;SDS011;9034;50.284;19.310;2023-07-31T04:13:58;2.80;;;2.10;;
17818;SDS011;9034;50.284;19.310;2023-07-31T04:15:01;2.33;;;2.13;;
17818;SDS011;9034;50.284;19.310;2023-07-31T04:16:03;2.10;;;2.00;;
17818;SDS011;9034;50.284;19.310;2023-07-31T04:17:08;2.00;;;1.90;;
17818;SDS011;9034;50.284;19.310;2023-07-31T04:18:14;2.13;;;1.92;;
17818;SDS011;9034;50.284;19.310;2023-07-31T04:19:17;2.30;;;2.10;;
17818;SDS011;9034;50.284;19.310;2023-07-31T04:20:19;3.08;;;2.50;;
17818;SDS011;9034;50.284;19.310;2023-07-31T04:21:21;2.30;;;2.10;;
17818;SDS011;9034;50.284;19.310;2023-07-31T04:22:23;1.80;;;1.70;;
17818;SDS011;9034;50.284;19.310;2023-07-31T04:23:26;2.72;;;2.33;;
17818;SDS011;9034;50.284;19.310;2023-07-31T04:24:28;3.03;;;2.20;;
17818;SDS011;9034;50.284;19.310;2023-07-31T04:25:31;2.67;;;2.03;;
17818;SDS011;9034;50.284;19.310;2023-07-31T04:26:33;2.30;;;2.10;;
17818;SDS011;9034;50.284;19.310;2023-07-31T04:27:36;2.40;;;2.20;;
17818;SDS011;9034;50.284;19.310;2023-07-31T04:28:37;2.15;;;2.00;;
17818;SDS011;9034;50.284;19.310;2023-07-31T04:29:44;2.60;;;2.20;;
17818;SDS011;9034;50.284;19.310;2023-07-31T04:30:48;3.92;;;2.28;;
17818;SDS011;9034;50.284;19.310;2023-07-31T04:31:51;2.10;;;2.00;;
17818;SDS011;9034;50.284;19.310;2023-07-31T04:32:53;2.20;;;2.00;;
17818;SDS011;9034;50.284;19.310;2023-07-31T04:33:57;2.10;;;2.00;;
17818;SDS011;9034;50.284;19.310;2023-07-31T04:34:59;2.33;;;2.10;;
17818;SDS011;9034;50.284;19.310;2023-07-31T04:36:02;2.20;;;1.95;;
17818;SDS011;9034;50.284;19.310;2023-07-31T04:37:04;2.15;;;1.95;;
17818;SDS011;9034;50.284;19.310;2023-07-31T04:38:07;2.03;;;1.92;;
17818;SDS011;9034;50.284;19.310;2023-07-31T04:39:09;2.05;;;1.95;;
17818;SDS011;9034;50.284;19.310;2023-07-31T04:40:12;4.20;;;2.45;;
17818;SDS011;9034;50.284;19.310;2023-07-31T04:41:14;3.70;;;1.90;;
17818;SDS011;9034;50.284;19.310;2023-07-31T04:42:17;2.25;;;1.83;;
17818;SDS011;9034;50.284;19.310;2023-07-31T04:43:19;2.72;;;2.08;;
17818;SDS011;9034;50.284;19.310;2023-07-31T04:44:21;1.90;;;1.80;;
17818;SDS011;9034;50.284;19.310;2023-07-31T04:45:23;1.80;;;1.70;;
17818;SDS011;9034;50.284;19.310;2023-07-31T04:46:26;2.20;;;2.00;;
17818;SDS011;9034;50.284;19.310;2023-07-31T04:47:28;2.15;;;1.90;;
17818;SDS011;9034;50.284;19.310;2023-07-31T04:48:31;3.25;;;2.10;;
17818;SDS011;9034;50.284;19.310;2023-07-31T04:49:34;3.47;;;1.98;;
17818;SDS011;9034;50.284;19.310;2023-07-31T04:50:37;2.30;;;2.10;;
17818;SDS011;9034;50.284;19.310;2023-07-31T04:51:39;2.30;;;1.77;;
17818;SDS011;9034;50.284;19.310;2023-07-31T04:52:41;2.85;;;1.90;;
17818;SDS011;9034;50.284;19.310;2023-07-31T04:53:43;1.60;;;1.50;;
17818;SDS011;9034;50.284;19.310;2023-07-31T04:54:45;2.22;;;2.00;;
17818;SDS011;9034;50.284;19.310;2023-07-31T04:55:48;3.72;;;2.03;;
17818;SDS011;9034;50.284;19.310;2023-07-31T04:56:50;2.05;;;1.85;;
17818;SDS011;9034;50.284;19.310;2023-07-31T04:57:53;2.58;;;1.90;;
17818;SDS011;9034;50.284;19.310;2023-07-31T04:58:55;1.83;;;1.73;;
17818;SDS011;9034;50.284;19.310;2023-07-31T04:59:57;2.63;;;2.08;;
17818;SDS011;9034;50.284;19.310;2023-07-31T05:01:00;1.95;;;1.80;;
17818;SDS011;9034;50.284;19.310;2023-07-31T05:02:02;3.03;;;1.83;;
17818;SDS011;9034;50.284;19.310;2023-07-31T05:03:05;2.35;;;2.15;;
17818;SDS011;9034;50.284;19.310;2023-07-31T05:04:08;2.95;;;1.70;;
17818;SDS011;9034;50.284;19.310;2023-07-31T05:05:12;2.10;;;1.98;;
17818;SDS011;9034;50.284;19.310;2023-07-31T05:06:14;2.75;;;2.00;;
17818;SDS011;9034;50.284;19.310;2023-07-31T05:07:17;1.63;;;1.52;;
17818;SDS011;9034;50.284;19.310;2023-07-31T05:08:19;1.88;;;1.75;;
17818;SDS011;9034;50.284;19.310;2023-07-31T05:09:22;2.97;;;1.70;;
17818;SDS011;9034;50.284;19.310;2023-07-31T05:10:24;1.77;;;1.67;;
17818;SDS011;9034;50.284;19.310;2023-07-31T05:11:26;2.00;;;1.90;;
17818;SDS011;9034;50.284;19.310;2023-07-31T05:12:28;2.30;;;2.10;;
17818;SDS011;9034;50.284;19.310;2023-07-31T05:13:30;3.30;;;1.90;;
17818;SDS011;9034;50.284;19.310;2023-07-31T05:14:33;1.80;;;1.70;;
17818;SDS011;9034;50.284;19.310;2023-07-31T05:15:35;2.07;;;1.83;;
17818;SDS011;9034;50.284;19.310;2023-07-31T05:16:38;2.00;;;1.90;;
17818;SDS011;9034;50.284;19.310;2023-07-31T05:17:41;2.35;;;1.90;;
17818;SDS011;9034;50.284;19.310;2023-07-31T05:18:44;2.15;;;1.75;;
17818;SDS011;9034;50.284;19.310;2023-07-31T05:19:45;1.58;;;1.48;;
17818;SDS011;9034;50.284;19.310;2023-07-31T05:20:50;1.95;;;1.85;;
17818;SDS011;9034;50.284;19.310;2023-07-31T05:21:51;2.33;;;1.88;;
17818;SDS011;9034;50.284;19.310;2023-07-31T05:22:54;1.80;;;1.70;;
17818;SDS011;9034;50.284;19.310;2023-07-31T05:23:56;1.83;;;1.73;;
17818;SDS011;9034;50.284;19.310;2023-07-31T05:24:59;1.60;;;1.50;;
17818;SDS011;9034;50.284;19.310;2023-07-31T05:26:04;4.37;;;2.07;;
17818;SDS011;9034;50.284;19.310;2023-07-31T05:27:07;2.00;;;1.80;;
17818;SDS011;9034;50.284;19.310;2023-07-31T05:28:09;1.90;;;1.80;;
17818;SDS011;9034;50.284;19.310;2023-07-31T05:29:12;1.87;;;1.77;;
17818;SDS011;9034;50.284;19.310;2023-07-31T05:30:14;1.97;;;1.80;;
17818;SDS011;9034;50.284;19.310;2023-07-31T05:31:17;2.50;;;1.60;;
17818;SDS011;9034;50.284;19.310;2023-07-31T05:32:20;1.90;;;1.80;;
17818;SDS011;9034;50.284;19.310;2023-07-31T05:33:21;1.70;;;1.60;;
17818;SDS011;9034;50.284;19.310;2023-07-31T05:34:24;1.93;;;1.83;;
17818;SDS011;9034;50.284;19.310;2023-07-31T05:35:26;1.70;;;1.60;;
17818;SDS011;9034;50.284;19.310;2023-07-31T05:36:30;2.17;;;1.97;;
17818;SDS011;9034;50.284;19.310;2023-07-31T05:37:32;1.93;;;1.80;;
17818;SDS011;9034;50.284;19.310;2023-07-31T05:38:35;1.83;;;1.70;;
17818;SDS011;9034;50.284;19.310;2023-07-31T05:39:37;2.90;;;1.80;;
17818;SDS011;9034;50.284;19.310;2023-07-31T05:40:40;1.90;;;1.80;;
17818;SDS011;9034;50.284;19.310;2023-07-31T05:41:42;2.50;;;1.70;;
17818;SDS011;9034;50.284;19.310;2023-07-31T05:42:44;2.10;;;1.60;;
17818;SDS011;9034;50.284;19.310;2023-07-31T05:43:46;5.10;;;1.93;;
17818;SDS011;9034;50.284;19.310;2023-07-31T05:44:52;5.57;;;1.97;;
17818;SDS011;9034;50.284;19.310;2023-07-31T05:45:54;1.90;;;1.80;;
17818;SDS011;9034;50.284;19.310;2023-07-31T05:46:57;1.67;;;1.57;;
17818;SDS011;9034;50.284;19.310;2023-07-31T05:47:59;1.80;;;1.70;;
17818;SDS011;9034;50.284;19.310;2023-07-31T05:49:02;1.80;;;1.70;;
17818;SDS011;9034;50.284;19.310;2023-07-31T05:50:04;1.77;;;1.63;;
17818;SDS011;9034;50.284;19.310;2023-07-31T05:51:07;2.20;;;2.00;;
17818;SDS011;9034;50.284;19.310;2023-07-31T05:52:11;2.47;;;1.60;;
17818;SDS011;9034;50.284;19.310;2023-07-31T05:53:13;2.30;;;1.87;;
17818;SDS011;9034;50.284;19.310;2023-07-31T05:54:16;1.80;;;1.70;;
17818;SDS011;9034;50.284;19.310;2023-07-31T05:55:18;2.60;;;1.80;;
17818;SDS011;9034;50.284;19.310;2023-07-31T05:56:20;2.53;;;1.80;;
17818;SDS011;9034;50.284;19.310;2023-07-31T05:57:23;2.90;;;1.60;;
17818;SDS011;9034;50.284;19.310;2023-07-31T05:58:25;1.33;;;1.33;;
17818;SDS011;9034;50.284;19.310;2023-07-31T05:59:28;2.00;;;1.73;;
17818;SDS011;9034;50.284;19.310;2023-07-31T06:00:30;2.13;;;1.80;;
17818;SDS011;9034;50.284;19.310;2023-07-31T06:01:33;1.70;;;1.60;;
17818;SDS011;9034;50.284;19.310;2023-07-31T06:02:35;1.80;;;1.70;;
17818;SDS011;9034;50.284;19.310;2023-07-31T06:03:38;1.90;;;1.80;;
17818;SDS011;9034;50.284;19.310;2023-07-31T06:04:40;2.20;;;2.00;;
17818;SDS011;9034;50.284;19.310;2023-07-31T06:05:43;3.40;;;1.73;;
17818;SDS011;9034;50.284;19.310;2023-07-31T06:06:45;2.13;;;1.70;;
17818;SDS011;9034;50.284;19.310;2023-07-31T06:07:49;3.77;;;1.70;;
17818;SDS011;9034;50.284;19.310;2023-07-31T06:08:51;1.53;;;1.43;;
17818;SDS011;9034;50.284;19.310;2023-07-31T06:09:57;1.90;;;1.80;;
17818;SDS011;9034;50.284;19.310;2023-07-31T06:11:04;1.90;;;1.60;;
17818;SDS011;9034;50.284;19.310;2023-07-31T06:12:07;2.00;;;1.60;;
17818;SDS011;9034;50.284;19.310;2023-07-31T06:13:10;1.73;;;1.63;;
17818;SDS011;9034;50.284;19.310;2023-07-31T06:14:13;3.30;;;1.70;;
17818;SDS011;9034;50.284;19.310;2023-07-31T06:15:15;2.37;;;1.67;;
17818;SDS011;9034;50.284;19.310;2023-07-31T06:16:19;4.73;;;1.60;;
17818;SDS011;9034;50.284;19.310;2023-07-31T06:17:22;1.53;;;1.43;;
17818;SDS011;9034;50.284;19.310;2023-07-31T06:18:25;3.03;;;1.90;;
17818;SDS011;9034;50.284;19.310;2023-07-31T06:19:27;1.80;;;1.70;;
17818;SDS011;9034;50.284;19.310;2023-07-31T06:20:30;1.70;;;1.60;;
17818;SDS011;9034;50.284;19.310;2023-07-31T06:21:32;4.23;;;1.90;;